Time;durP1;ratioP1;P1;durP2;ratioP2;P2;SDS_P1;SDS_P2;PMS_P1;PMS_P2;Temp;Humidity;BMP_temperature;BMP_pressure;BME280_temperature;BME280_humidity;BME280_pressure;Samples;Min_cycle;Max_cycle;Signal;HPM_P1;HPM_P2
2021/03/23 00:00:51;;;;;;;6.35;4.15;;;;;;;5.10;44.25;100718.00;5095614;28;20051;-79
2021/03/23 00:03:55;;;;;;;6.18;4.60;;;;;;;5.10;44.34;100718.00;5106572;28;20047;-80
2021/03/23 00:06:59;;;;;;;7.68;5.00;;;;;;;5.12;44.21;100721.41;5094294;28;20102;-80
2021/03/23 00:10:04;;;;;;;6.80;4.68;;;;;;;5.16;44.01;100717.63;5104551;28;20506;-83
2021/03/23 00:13:08;;;;;;;8.50;5.10;;;;;;;5.21;43.79;100727.03;5105517;28;20047;-80
2021/03/23 00:16:15;;;;;;;6.95;4.13;;;;;;;5.35;43.80;100738.66;5105774;28;20047;-79
2021/03/23 00:19:19;;;;;;;6.13;4.88;;;;;;;5.48;44.08;100756.44;5106403;28;20051;-79
2021/03/23 00:22:25;;;;;;;6.60;4.90;;;;;;;5.44;44.27;100760.25;5090893;28;20043;-80
2021/03/23 00:25:30;;;;;;;7.43;5.10;;;;;;;5.55;43.73;100757.81;5105061;28;20110;-80
2021/03/23 00:28:35;;;;;;;7.72;4.85;;;;;;;5.58;43.95;100762.94;5092995;28;20043;-77
2021/03/23 00:31:39;;;;;;;6.80;4.75;;;;;;;5.39;44.62;100770.31;5105804;28;20055;-75
2021/03/23 00:34:44;;;;;;;8.27;5.20;;;;;;;5.28;45.48;100785.22;5103616;28;20399;-75
2021/03/23 00:37:52;;;;;;;7.72;5.20;;;;;;;5.16;46.73;100792.97;5104522;28;20502;-75
2021/03/23 00:40:57;;;;;;;9.05;5.40;;;;;;;5.09;46.91;100791.63;5105834;28;20076;-73
2021/03/23 00:44:04;;;;;;;7.30;4.82;;;;;;;5.14;46.86;100794.88;5105624;28;20062;-73
2021/03/23 00:47:08;;;;;;;8.35;5.20;;;;;;;5.18;46.83;100791.06;5104452;28;20047;-75
2021/03/23 00:50:13;;;;;;;11.32;5.95;;;;;;;5.21;46.71;100790.03;5105012;28;20043;-74
2021/03/23 00:53:17;;;;;;;10.25;5.68;;;;;;;5.18;46.32;100790.25;5092990;28;20047;-74
2021/03/23 00:56:22;;;;;;;11.55;5.57;;;;;;;5.20;46.60;100793.66;5105588;28;20056;-75
2021/03/23 00:59:26;;;;;;;11.88;6.80;;;;;;;4.86;47.17;100792.13;5091649;28;20059;-73
2021/03/23 01:02:31;;;;;;;9.15;5.32;;;;;;;4.85;47.85;100808.13;5104535;28;20051;-74
2021/03/23 01:05:36;;;;;;;10.57;6.13;;;;;;;4.86;48.11;100808.06;5104931;28;20039;-76
2021/03/23 01:08:41;;;;;;;9.75;6.13;;;;;;;4.81;48.54;100804.81;5105301;28;20042;-76
2021/03/23 01:11:46;;;;;;;7.20;5.50;;;;;;;4.81;48.39;100801.28;5103419;28;20090;-76
2021/03/23 01:14:50;;;;;;;7.25;5.43;;;;;;;4.75;48.65;100810.47;5104574;28;20394;-76
2021/03/23 01:17:55;;;;;;;8.85;5.15;;;;;;;4.74;48.46;100810.56;5110055;28;20043;-74
2021/03/23 01:20:59;;;;;;;9.18;5.75;;;;;;;4.79;48.87;100824.47;5105231;28;20055;-75
2021/03/23 01:24:04;;;;;;;7.40;5.47;;;;;;;4.89;48.47;100825.66;5104785;28;20406;-76
2021/03/23 01:27:09;;;;;;;7.20;5.50;;;;;;;4.80;48.70;100821.69;5089456;28;20042;-76
2021/03/23 01:30:14;;;;;;;12.75;5.95;;;;;;;4.82;48.68;100819.81;5104035;28;20055;-75
2021/03/23 01:33:18;;;;;;;6.63;5.47;;;;;;;4.72;49.13;100823.06;5089218;28;20051;-76
2021/03/23 01:36:23;;;;;;;7.90;5.30;;;;;;;4.66;49.22;100818.09;5090547;28;20429;-75
2021/03/23 01:39:27;;;;;;;8.30;5.85;;;;;;;4.62;49.37;100828.03;5090757;28;20501;-75
2021/03/23 01:42:44;;;;;;;8.25;5.70;;;;;;;4.65;49.05;100835.00;5102122;28;20047;-75
2021/03/23 01:45:49;;;;;;;7.78;5.90;;;;;;;4.56;49.07;100831.06;5103261;28;20375;-75
2021/03/23 01:48:53;;;;;;;7.88;5.65;;;;;;;4.42;49.29;100825.66;5104041;28;20047;-77
2021/03/23 01:52:01;;;;;;;9.10;5.80;;;;;;;4.55;48.65;100838.16;5104285;28;20055;-77
2021/03/23 01:55:09;;;;;;;6.70;5.18;;;;;;;4.58;48.92;100848.63;5090064;28;20486;-74
2021/03/23 01:58:15;;;;;;;9.48;5.10;;;;;;;4.70;48.04;100851.53;5103959;28;20054;-76
2021/03/23 02:01:19;;;;;;;6.40;5.13;;;;;;;4.53;48.63;100855.13;5089506;28;20055;-80
2021/03/23 02:04:24;;;;;;;6.38;4.78;;;;;;;4.46;48.75;100853.75;5104304;28;20042;-76
2021/03/23 02:07:28;;;;;;;10.40;4.93;;;;;;;4.27;49.05;100856.53;5103080;28;20043;-74
2021/03/23 02:10:34;;;;;;;9.00;4.57;;;;;;;4.14;49.54;100862.63;5101056;28;20043;-76
2021/03/23 02:13:39;;;;;;;6.72;4.97;;;;;;;4.00;49.81;100850.06;5101955;28;20047;-78
2021/03/23 02:16:44;;;;;;;6.50;4.90;;;;;;;3.97;50.12;100864.34;5104315;28;20055;-79
2021/03/23 02:19:52;;;;;;;8.48;5.43;;;;;;;3.97;50.58;100864.34;5102973;28;20466;-78
2021/03/23 02:23:07;;;;;;;9.07;5.10;;;;;;;3.90;50.54;100864.78;5103921;28;20071;-81
2021/03/23 02:26:15;;;;;;;8.02;5.28;;;;;;;3.83;50.29;100879.28;5091818;28;20054;-78
2021/03/23 02:29:21;;;;;;;7.63;5.22;;;;;;;3.73;50.67;100873.59;5104276;28;20060;-79
2021/03/23 02:32:26;;;;;;;5.70;4.70;;;;;;;3.66;50.84;100884.59;5093172;28;20039;-80
2021/03/23 02:35:32;;;;;;;9.10;5.03;;;;;;;3.57;50.82;100869.16;5103285;28;20525;-79
2021/03/23 02:38:36;;;;;;;8.93;5.13;;;;;;;3.53;50.89;100883.53;5103772;28;20081;-81
2021/03/23 02:41:40;;;;;;;9.95;5.38;;;;;;;3.48;50.94;100883.75;5103930;28;20050;-83
2021/03/23 02:44:47;;;;;;;7.90;5.20;;;;;;;3.49;51.00;100884.59;5104005;28;20051;-79
2021/03/23 02:47:51;;;;;;;11.98;5.43;;;;;;;3.54;51.05;100883.44;5103114;28;20055;-78
2021/03/23 02:50:56;;;;;;;8.38;5.10;;;;;;;3.59;50.67;100892.03;5103582;28;20502;-76
2021/03/23 02:54:01;;;;;;;7.40;5.10;;;;;;;3.54;50.94;100898.50;5106050;28;20054;-78
2021/03/23 02:57:07;;;;;;;7.57;4.93;;;;;;;3.56;51.00;100908.09;5104699;28;20047;-77
2021/03/23 03:00:14;;;;;;;6.50;4.72;;;;;;;3.52;51.30;100916.31;5106880;28;20047;-78
2021/03/23 03:03:19;;;;;;;6.20;4.80;;;;;;;3.56;51.25;100942.59;5107671;28;20403;-78
2021/03/23 03:06:23;;;;;;;7.88;4.85;;;;;;;3.69;51.21;100934.91;5107550;28;20509;-75
2021/03/23 03:09:27;;;;;;;7.20;5.25;;;;;;;3.64;51.12;100931.59;5105922;28;20047;-75
2021/03/23 03:12:32;;;;;;;9.50;5.20;;;;;;;3.54;51.48;100947.13;5106579;28;20055;-73
2021/03/23 03:15:36;;;;;;;8.05;6.00;;;;;;;3.48;51.72;100941.28;5090246;28;20039;-75
2021/03/23 03:18:41;;;;;;;8.00;5.50;;;;;;;3.45;51.87;100949.38;5105038;28;20046;-74
2021/03/23 03:21:45;;;;;;;9.32;5.80;;;;;;;3.49;51.82;100951.81;5095712;28;20070;-74
2021/03/23 03:24:50;;;;;;;8.93;5.95;;;;;;;3.44;52.19;100959.13;5106008;28;20051;-74
2021/03/23 03:27:54;;;;;;;7.40;5.32;;;;;;;3.41;52.41;100963.75;5106409;28;20138;-74
2021/03/23 03:30:59;;;;;;;8.63;5.68;;;;;;;3.38;52.86;100966.53;5104929;28;20431;-76
2021/03/23 03:34:04;;;;;;;7.40;5.57;;;;;;;3.45;53.22;100974.13;5106639;28;20050;-76
2021/03/23 03:37:08;;;;;;;8.38;5.95;;;;;;;3.43;53.20;100981.31;5094431;28;20046;-78
2021/03/23 03:40:20;;;;;;;9.40;5.78;;;;;;;3.51;53.17;100970.28;5106109;28;20043;-75
2021/03/23 03:43:27;;;;;;;8.93;5.97;;;;;;;3.33;53.77;100971.22;5111576;28;20845;-76
2021/03/23 03:46:32;;;;;;;8.00;5.63;;;;;;;3.34;53.70;100975.56;5106468;28;20043;-75
2021/03/23 03:49:36;;;;;;;10.35;5.57;;;;;;;3.14;53.71;100968.56;5093749;28;20426;-77
2021/03/23 03:52:40;;;;;;;10.98;5.25;;;;;;;3.18;54.33;100980.78;5106698;28;20521;-78
2021/03/23 03:55:47;;;;;;;11.23;5.80;;;;;;;3.34;53.88;100992.34;5100858;28;20110;-76
2021/03/23 03:58:51;;;;;;;8.88;5.07;;;;;;;3.32;54.22;100988.91;5104634;28;20047;-75
2021/03/23 04:01:55;;;;;;;7.72;4.88;;;;;;;3.40;53.88;100991.22;5093372;28;20055;-76
2021/03/23 04:04:59;;;;;;;11.07;5.60;;;;;;;3.35;53.95;100991.44;5082073;28;20051;-78
2021/03/23 04:08:05;;;;;;;10.00;5.57;;;;;;;3.29;53.86;100992.56;5105396;28;20509;-76
2021/03/23 04:11:11;;;;;;;7.95;5.70;;;;;;;3.26;54.15;100999.81;5105053;28;20047;-76
2021/03/23 04:14:15;;;;;;;9.68;5.60;;;;;;;3.22;53.70;101001.75;5093245;28;20063;-74
2021/03/23 04:17:20;;;;;;;7.63;4.82;;;;;;;3.31;53.57;101007.56;5100849;28;20387;-73
2021/03/23 04:20:25;;;;;;;9.25;5.20;;;;;;;3.18;53.47;101000.19;5106099;28;20043;-74
2021/03/23 04:23:37;;;;;;;8.13;4.65;;;;;;;3.12;52.15;101012.88;5104942;28;20067;-73
2021/03/23 04:26:42;;;;;;;7.85;4.25;;;;;;;3.01;52.24;101013.34;5105978;28;20126;-74
2021/03/23 04:29:46;;;;;;;7.25;4.53;;;;;;;2.92;52.51;101023.53;5093915;28;20059;-73
2021/03/23 04:32:52;;;;;;;9.48;4.40;;;;;;;2.93;52.60;101017.31;5104299;28;20157;-73
2021/03/23 04:36:02;;;;;;;7.55;4.57;;;;;;;2.95;53.01;101021.59;5102130;28;20517;-73
2021/03/23 04:39:09;;;;;;;8.57;4.93;;;;;;;2.95;52.76;101029.56;5089472;28;20063;-74
2021/03/23 04:42:13;;;;;;;8.93;4.55;;;;;;;3.02;52.68;101041.59;5105080;28;20047;-76
2021/03/23 04:45:21;;;;;;;7.20;4.57;;;;;;;2.94;52.97;101042.91;5105343;28;20036;-76
2021/03/23 04:48:26;;;;;;;5.93;4.22;;;;;;;2.94;53.21;101040.25;5105582;28;20055;-78
2021/03/23 04:51:31;;;;;;;12.50;4.47;;;;;;;2.85;52.81;101043.31;5104119;28;20067;-79
2021/03/23 04:54:35;;;;;;;7.93;4.72;;;;;;;2.89;52.89;101048.38;5105012;28;20403;-80
2021/03/23 04:57:40;;;;;;;6.47;4.25;;;;;;;2.90;53.24;101050.13;5105727;28;20047;-77
2021/03/23 05:00:44;;;;;;;11.23;4.78;;;;;;;2.75;53.44;101044.63;5105309;28;20497;-78
2021/03/23 05:03:54;;;;;;;7.97;4.22;;;;;;;2.80;53.12;101054.13;5103754;28;20051;-81
2021/03/23 05:06:58;;;;;;;7.55;4.20;;;;;;;2.73;53.65;101068.56;5092833;28;20055;-79
2021/03/23 05:10:06;;;;;;;7.50;4.28;;;;;;;2.72;53.62;101071.28;5105356;28;20502;-79
2021/03/23 05:13:10;;;;;;;9.07;5.13;;;;;;;2.72;53.18;101061.53;5103782;28;20047;-81
2021/03/23 05:16:15;;;;;;;16.08;5.25;;;;;;;2.65;53.27;101081.28;5104590;28;20050;-82
2021/03/23 05:19:19;;;;;;;9.07;4.47;;;;;;;2.63;53.59;101077.84;5104740;28;20048;-80
2021/03/23 05:22:24;;;;;;;14.80;4.90;;;;;;;2.58;53.57;101079.84;5105591;28;20050;-77
2021/03/23 05:25:28;;;;;;;7.00;4.28;;;;;;;2.57;53.39;101088.72;5103297;28;20055;-78
2021/03/23 05:28:32;;;;;;;7.30;4.65;;;;;;;2.58;53.29;101101.91;5091495;28;20051;-81
2021/03/23 05:31:37;;;;;;;6.68;4.25;;;;;;;2.59;53.28;101100.13;5079320;28;20047;-81
2021/03/23 05:34:41;;;;;;;8.02;5.50;;;;;;;2.58;53.32;101101.91;5104839;28;20153;-76
2021/03/23 05:37:46;;;;;;;8.10;5.25;;;;;;;2.64;53.25;101103.44;5105104;28;20046;-77
2021/03/23 05:41:00;;;;;;;12.50;5.85;;;;;;;2.71;53.56;101106.69;5103662;28;20051;-78
2021/03/23 05:44:46;;;;;;;11.55;5.20;;;;;;;2.89;52.68;101103.22;5104681;28;20398;-75
2021/03/23 05:48:08;;;;;;;8.50;4.85;;;;;;;3.12;52.07;101106.56;5039660;28;20367;-75
2021/03/23 05:51:23;;;;;;;6.53;4.50;;;;;;;3.30;51.83;101110.16;5048635;28;20049;-75
2021/03/23 05:55:00;;;;;;;6.15;4.28;;;;;;;3.61;51.16;101120.22;5036653;28;20044;-75
2021/03/23 05:58:05;;;;;;;9.20;4.75;;;;;;;3.85;50.05;101127.03;5040931;28;20040;-77
2021/03/23 06:01:27;;;;;;;9.05;4.28;;;;;;;3.93;49.46;101130.16;5037482;28;20053;-80
2021/03/23 06:04:46;;;;;;;6.25;3.95;;;;;;;3.97;49.47;101139.72;5037953;28;20045;-77
2021/03/23 06:07:51;;;;;;;9.02;5.18;;;;;;;4.31;48.62;101134.47;5039174;28;20047;-77
2021/03/23 06:11:24;;;;;;;11.00;5.30;;;;;;;4.44;48.38;101137.38;5044125;28;20393;-74
2021/03/23 06:14:38;;;;;;;56.60;39.97;;;;;;;4.56;47.55;101142.09;5036435;28;20409;-76
2021/03/23 06:17:48;;;;;;;129.50;74.88;;;;;;;4.62;47.41;101138.25;5040246;28;20052;-74
2021/03/23 06:21:19;;;;;;;28.92;14.35;;;;;;;5.07;46.94;101143.84;5036720;28;20393;-75
2021/03/23 06:24:43;;;;;;;8.18;4.90;;;;;;;5.32;46.60;101144.28;5040041;28;20044;-78
2021/03/23 06:27:55;;;;;;;;;;;;;;;5.88;45.33;101143.84;5040978;28;20056;-73
2021/03/23 06:31:17;;;;;;;13.77;4.70;;;;;;;5.83;44.49;101146.75;5039075;28;19985;-81
2021/03/23 06:34:27;;;;;;;11.75;4.80;;;;;;;6.11;44.22;101142.56;5039624;28;20049;-77
2021/03/23 06:37:40;;;;;;;14.18;5.03;;;;;;;6.22;43.44;101150.81;5036879;28;20500;-76
2021/03/23 06:41:07;;;;;;;11.07;5.60;;;;;;;6.91;42.41;101156.50;5040035;28;20048;-76
2021/03/23 06:44:14;;;;;;;15.43;5.18;;;;;;;6.82;42.13;101155.22;5028386;28;20401;-78
2021/03/23 06:47:40;;;;;;;9.98;4.93;;;;;;;6.93;42.12;101163.47;5018611;28;20057;-77
2021/03/23 06:50:45;;;;;;;10.77;5.10;;;;;;;6.91;42.10;101176.03;5030414;28;20378;-78
2021/03/23 06:53:50;;;;;;;10.68;5.68;;;;;;;7.05;42.25;101168.06;5030159;28;20053;-75
2021/03/23 06:57:16;;;;;;;18.40;7.05;;;;;;;7.32;42.11;101176.22;5027252;28;20477;-75
2021/03/23 07:00:25;;;;;;;18.20;6.82;;;;;;;7.47;41.70;101182.41;5017103;28;20056;-75
2021/03/23 07:03:29;;;;;;;10.70;5.30;;;;;;;7.40;41.61;101181.09;5016190;28;20377;-75
2021/03/23 07:06:34;;;;;;;15.27;4.90;;;;;;;7.37;40.87;101184.78;5008362;28;20045;-74
2021/03/23 07:09:57;;;;;;;7.10;4.85;;;;;;;7.78;40.77;101185.75;5003295;28;20051;-75
2021/03/23 07:13:03;;;;;;;8.75;4.47;;;;;;;8.94;38.03;101187.03;5000412;28;20056;-76
2021/03/23 07:16:10;;;;;;;8.40;4.18;;;;;;;9.28;37.58;101199.00;5016571;28;20484;-74
2021/03/23 07:19:15;;;;;;;12.55;5.10;;;;;;;9.86;36.41;101195.75;5016599;28;20068;-75
2021/03/23 07:22:41;;;;;;;19.00;5.10;;;;;;;10.43;35.51;101203.16;5016583;28;20395;-77
2021/03/23 07:25:46;;;;;;;11.18;5.32;;;;;;;12.32;32.46;101190.13;5016279;28;20045;-77
2021/03/23 07:28:50;;;;;;;13.38;5.45;;;;;;;13.14;29.96;101188.63;5021097;28;20036;-79
2021/03/23 07:32:00;;;;;;;8.52;4.85;;;;;;;13.51;29.98;101200.66;5013258;28;20532;-79
2021/03/23 07:35:29;;;;;;;11.45;4.93;;;;;;;14.20;28.42;101196.31;5002624;28;20048;-77
2021/03/23 07:38:48;;;;;;;7.82;4.85;;;;;;;15.20;27.94;101192.47;5015812;28;20053;-78
2021/03/23 07:41:57;;;;;;;9.30;4.53;;;;;;;13.98;28.99;101204.59;5015797;28;20045;-76
2021/03/23 07:45:18;;;;;;;14.13;3.97;;;;;;;16.53;26.23;101201.19;5014985;28;20409;-79
2021/03/23 07:48:51;;;;;;;10.93;4.28;;;;;;;23.20;19.57;101188.16;5015737;28;20393;-81
2021/03/23 07:52:21;;;;;;;6.20;4.13;;;;;;;26.07;17.25;101190.38;5014960;28;20057;-76
2021/03/23 07:55:27;;;;;;;6.28;3.65;;;;;;;28.74;14.69;101191.38;5015165;28;20049;-77
2021/03/23 07:58:58;;;;;;;10.57;4.43;;;;;;;30.86;13.49;101197.41;5015356;28;20061;-81
2021/03/23 08:02:27;;;;;;;7.30;4.20;;;;;;;32.87;12.85;101198.16;5017897;28;20068;-86
2021/03/23 08:05:38;;;;;;;9.85;4.18;;;;;;;34.56;11.64;101197.13;5005036;28;20508;-77
2021/03/23 08:09:06;;;;;;;9.63;3.50;;;;;;;34.75;11.63;101207.78;4992236;28;20054;-78
2021/03/23 08:12:32;;;;;;;5.82;3.67;;;;;;;33.90;12.05;101207.00;4997988;28;20045;-81
2021/03/23 08:16:10;;;;;;;8.90;3.67;;;;;;;34.62;11.90;101220.28;5012885;28;20045;-78
2021/03/23 08:19:42;;;;;;;6.15;3.13;;;;;;;37.61;10.70;101211.16;5013141;28;20053;-82
2021/03/23 08:23:24;;;;;;;11.27;3.72;;;;;;;32.53;12.40;101217.81;5014429;28;20497;-75
2021/03/23 08:26:55;;;;;;;8.10;3.67;;;;;;;33.69;12.05;101218.25;5009503;28;20049;-83
2021/03/23 08:30:21;;;;;;;8.02;3.75;;;;;;;33.92;11.85;101220.66;5019562;28;20048;-79
2021/03/23 08:33:44;;;;;;;8.70;3.40;;;;;;;36.20;10.97;101225.84;5013815;28;20068;-77
2021/03/23 08:37:16;;;;;;;7.00;3.47;;;;;;;31.90;13.55;101228.50;5013914;28;20064;-80
2021/03/23 08:40:43;;;;;;;6.15;3.53;;;;;;;27.35;15.86;101230.75;5002185;28;20048;-76
2021/03/23 08:43:48;;;;;;;7.50;3.40;;;;;;;30.79;13.99;101227.22;5044743;28;20041;-82
2021/03/23 08:46:53;;;;;;;5.53;3.08;;;;;;;31.04;14.18;101235.25;4993834;28;20057;-82
2021/03/23 08:50:22;;;;;;;12.80;3.47;;;;;;;30.06;14.55;101240.84;4994434;28;20073;-82
2021/03/23 08:53:34;;;;;;;6.43;3.63;;;;;;;32.00;13.18;101237.00;5001169;28;20069;-77
2021/03/23 08:56:41;;;;;;;5.40;3.22;;;;;;;32.59;13.52;101243.75;5028449;28;20059;-79
2021/03/23 08:59:49;;;;;;;11.25;3.67;;;;;;;29.79;15.22;101239.63;5033748;28;20492;-75
2021/03/23 09:02:53;;;;;;;9.75;2.80;;;;;;;28.95;15.28;101250.84;5033169;28;20048;-76
2021/03/23 09:06:02;;;;;;;7.75;2.75;;;;;;;28.44;15.72;101242.97;5033564;28;20056;-82
2021/03/23 09:09:31;;;;;;;6.85;2.97;;;;;;;27.54;15.70;101247.19;5033640;28;20496;-80
2021/03/23 09:12:37;;;;;;;8.35;3.20;;;;;;;28.59;15.62;101243.41;5013611;28;20397;-82
2021/03/23 09:15:53;;;;;;;6.43;3.17;;;;;;;28.58;15.45;101244.47;5013291;28;20049;-82
2021/03/23 09:19:01;;;;;;;9.70;3.72;;;;;;;31.44;14.08;101247.16;5013291;28;20069;-82
2021/03/23 09:22:08;;;;;;;11.00;3.33;;;;;;;28.25;14.94;101252.28;5012865;28;20053;-80
2021/03/23 09:25:42;;;;;;;9.27;3.35;;;;;;;23.65;18.88;101256.25;5012299;28;20049;-78
2021/03/23 09:28:51;;;;;;;7.10;3.05;;;;;;;21.04;22.23;101251.38;5023400;28;20105;-83
2021/03/23 09:31:56;;;;;;;5.68;2.92;;;;;;;18.89;24.00;101264.16;5013098;28;20053;-80
2021/03/23 09:38:51;;;;;;;5.82;2.72;;;;;;;17.59;26.27;101255.47;5012867;28;20069;-79
2021/03/23 09:42:36;;;;;;;8.90;3.20;;;;;;;17.35;26.91;101245.25;4991200;28;20049;-81
2021/03/23 09:45:49;;;;;;;9.60;3.00;;;;;;;17.11;27.03;101264.00;4952286;28;20062;-80
2021/03/23 09:48:57;;;;;;;6.88;2.80;;;;;;;16.61;27.31;101275.34;4952228;28;20144;-83
2021/03/23 09:52:01;;;;;;;6.55;3.13;;;;;;;16.54;27.20;101273.38;4952343;28;20058;-81
2021/03/23 09:55:06;;;;;;;5.45;2.25;;;;;;;16.45;25.86;101283.22;4952768;29;20611;-81
2021/03/23 09:58:26;;;;;;;6.28;2.30;;;;;;;15.94;26.50;101275.56;4952160;28;20054;-82
2021/03/23 10:01:32;;;;;;;8.90;2.75;;;;;;;15.86;27.21;101277.28;4952425;28;20116;-82
2021/03/23 10:04:40;;;;;;;5.65;2.55;;;;;;;15.64;27.22;101281.19;4952020;28;20051;-80
2021/03/23 10:07:46;;;;;;;7.55;2.30;;;;;;;15.60;26.42;101282.47;4952028;28;20149;-77
2021/03/23 10:10:51;;;;;;;5.47;2.10;;;;;;;15.25;25.78;101287.56;4949945;28;20144;-82
2021/03/23 10:13:58;;;;;;;4.70;2.10;;;;;;;15.44;26.24;101288.44;4952318;28;20182;-83
2021/03/23 10:17:22;;;;;;;6.13;2.28;;;;;;;15.20;27.65;101298.81;5011819;28;20057;-83
2021/03/23 10:20:27;;;;;;;5.25;2.33;;;;;;;15.06;27.29;101282.16;5012808;28;20057;-82
2021/03/23 10:23:33;;;;;;;6.65;2.17;;;;;;;14.82;27.29;101286.09;5012628;28;20057;-79
2021/03/23 10:26:47;;;;;;;6.70;2.50;;;;;;;14.48;27.62;101292.81;5012525;28;20106;-82
2021/03/23 10:30:13;;;;;;;7.15;2.22;;;;;;;13.72;28.72;101292.41;5013080;28;20053;-76
2021/03/23 10:33:23;;;;;;;5.47;2.30;;;;;;;13.61;29.77;101283.38;5014834;28;20401;-82
2021/03/23 10:36:41;;;;;;;8.30;2.50;;;;;;;13.65;30.61;101284.81;5016327;28;20068;-81
2021/03/23 10:39:45;;;;;;;8.40;2.50;;;;;;;13.81;29.85;101292.44;5016004;28;20048;-83
2021/03/23 10:42:54;;;;;;;8.35;2.58;;;;;;;13.52;29.91;101288.72;5015956;28;20049;-77
2021/03/23 10:46:01;;;;;;;4.25;2.33;;;;;;;13.62;29.87;101279.69;5015818;28;20053;-78
2021/03/23 10:49:28;;;;;;;9.68;2.78;;;;;;;13.67;29.86;101274.78;5015988;28;20053;-76
2021/03/23 10:52:32;;;;;;;8.65;3.05;;;;;;;13.92;29.98;101281.59;5028153;28;20523;-78
2021/03/23 10:55:41;;;;;;;7.53;2.55;;;;;;;13.84;30.04;101267.03;5016607;28;20044;-79
2021/03/23 10:59:07;;;;;;;5.78;2.47;;;;;;;13.88;29.71;101269.34;5015625;28;20056;-77
2021/03/23 11:02:14;;;;;;;6.15;2.42;;;;;;;13.79;29.85;101271.97;5015687;28;20056;-80
2021/03/23 11:05:23;;;;;;;7.18;2.50;;;;;;;13.87;29.83;101264.94;5016059;28;20547;-77
2021/03/23 11:08:27;;;;;;;6.20;2.70;;;;;;;13.65;29.92;101262.41;5015195;28;20121;-80
2021/03/23 11:11:32;;;;;;;3.75;2.13;;;;;;;13.74;30.24;101268.81;5012184;28;20045;-77
2021/03/23 11:14:36;;;;;;;4.90;2.60;;;;;;;13.74;30.94;101266.13;5015142;28;20504;-81
2021/03/23 11:17:46;;;;;;;5.53;2.17;;;;;;;13.74;30.71;101255.34;5015034;28;20049;-80
2021/03/23 11:20:53;;;;;;;5.25;2.75;;;;;;;13.67;29.90;101257.72;5015166;28;20049;-78
2021/03/23 11:23:57;;;;;;;6.53;2.67;;;;;;;13.58;30.51;101247.69;5025522;28;20496;-82
2021/03/23 11:27:01;;;;;;;5.93;2.65;;;;;;;13.80;30.76;101257.50;5015010;28;20053;-78
2021/03/23 11:30:07;;;;;;;9.48;2.95;;;;;;;13.84;30.88;101256.25;5015774;28;20409;-81
2021/03/23 11:33:13;;;;;;;11.77;2.90;;;;;;;13.81;30.30;101259.22;5014951;28;20049;-77
2021/03/23 11:36:19;;;;;;;7.53;2.60;;;;;;;13.59;31.00;101252.13;5015005;28;20100;-77
2021/03/23 11:39:23;;;;;;;8.45;2.50;;;;;;;13.61;30.17;101258.22;5014517;28;20049;-77
2021/03/23 11:42:42;;;;;;;5.57;2.78;;;;;;;13.62;30.27;101263.53;5014830;28;20057;-81
2021/03/23 11:45:47;;;;;;;6.72;2.60;;;;;;;13.58;30.27;101259.34;5014220;28;20049;-78
2021/03/23 11:49:03;;;;;;;6.57;2.63;;;;;;;13.33;31.23;101261.59;5006081;28;20405;-82
2021/03/23 11:52:08;;;;;;;6.43;2.50;;;;;;;13.29;30.60;101252.03;5014873;28;20045;-77
2021/03/23 11:55:17;;;;;;;7.03;2.47;;;;;;;13.28;30.81;101253.03;5015024;28;20061;-81
2021/03/23 11:58:25;;;;;;;6.60;2.80;;;;;;;13.29;31.72;101241.25;5020177;28;20049;-78
2021/03/23 12:01:29;;;;;;;12.68;3.13;;;;;;;13.25;32.19;101237.13;5034464;28;20056;-80
2021/03/23 12:04:35;;;;;;;7.82;3.67;;;;;;;13.32;32.44;101238.31;5034346;28;20052;-78
2021/03/23 12:08:04;;;;;;;7.47;2.60;;;;;;;13.28;32.69;101247.66;5013753;28;20461;-76
2021/03/23 12:11:39;;;;;;;11.50;3.08;;;;;;;13.08;32.32;101235.84;5012867;28;20061;-77
2021/03/23 12:15:03;;;;;;;6.32;2.70;;;;;;;13.14;32.58;101242.53;5024575;28;20156;-80
2021/03/23 12:18:10;;;;;;;;;;;;;;;13.12;32.43;101245.38;5014792;28;20504;-83
2021/03/23 12:21:15;;;;;;;5.30;2.75;;;;;;;13.29;33.62;101228.63;5013807;28;19921;-75
2021/03/23 12:24:22;;;;;;;5.80;2.88;;;;;;;13.45;33.32;101231.75;5014323;28;20053;-75
2021/03/23 12:27:28;;;;;;;6.43;2.70;;;;;;;13.23;32.43;101236.41;5013894;28;20500;-75
2021/03/23 12:30:32;;;;;;;7.65;3.20;;;;;;;13.29;31.66;101230.47;5028866;28;20052;-77
2021/03/23 12:33:36;;;;;;;4.97;2.33;;;;;;;13.30;32.22;101216.88;5010291;28;20049;-76
2021/03/23 12:36:42;;;;;;;5.03;2.83;;;;;;;13.34;31.58;101207.53;5019361;28;20497;-80
2021/03/23 12:39:52;;;;;;;8.52;3.03;;;;;;;13.29;32.03;101201.66;5011476;28;20053;-78
2021/03/23 12:42:58;;;;;;;9.23;3.03;;;;;;;13.47;32.01;101204.63;5011602;28;20053;-78
2021/03/23 12:46:03;;;;;;;5.85;2.80;;;;;;;13.59;31.43;101200.88;4996041;28;20402;-76
2021/03/23 12:49:07;;;;;;;6.75;2.83;;;;;;;13.49;31.19;101194.56;5013381;28;20511;-79
2021/03/23 12:52:15;;;;;;;6.15;2.80;;;;;;;13.41;31.86;101189.81;5004832;28;20056;-76
2021/03/23 12:55:29;;;;;;;15.52;3.20;;;;;;;13.50;31.19;101194.44;5013113;28;20105;-74
2021/03/23 12:58:33;;;;;;;4.95;2.00;;;;;;;13.56;27.84;101193.91;5012995;28;20053;-74
2021/03/23 13:01:38;;;;;;;4.95;1.80;;;;;;;13.29;27.08;101181.94;5013760;28;20057;-77
2021/03/23 13:04:43;;;;;;;6.18;2.28;;;;;;;13.32;27.91;101171.75;5012853;28;20504;-76
2021/03/23 13:07:51;;;;;;;6.75;2.28;;;;;;;13.45;28.80;101177.81;5012952;28;20496;-75
2021/03/23 13:11:11;;;;;;;8.40;2.65;;;;;;;13.43;29.33;101173.53;5002968;28;20049;-77
2021/03/23 13:14:25;;;;;;;8.90;3.22;;;;;;;13.44;29.20;101154.50;5012624;28;20048;-80
2021/03/23 13:17:29;;;;;;;8.88;2.85;;;;;;;13.54;30.82;101151.84;5012990;28;20052;-76
2021/03/23 13:20:33;;;;;;;8.25;2.70;;;;;;;13.66;30.13;101153.47;5013063;28;20532;-76
2021/03/23 13:23:46;;;;;;;7.00;2.42;;;;;;;13.63;30.05;101148.34;5012167;28;20056;-80
2021/03/23 13:27:03;;;;;;;6.85;2.70;;;;;;;13.63;30.15;101135.72;5011584;28;20109;-79
2021/03/23 13:30:15;;;;;;;7.32;2.13;;;;;;;13.70;29.54;101144.97;5012576;28;20049;-76
2021/03/23 13:33:20;;;;;;;6.78;2.40;;;;;;;13.48;29.34;101134.34;4996483;28;20053;-78
2021/03/23 13:36:27;;;;;;;5.50;2.17;;;;;;;13.63;28.99;101130.31;5012852;28;20405;-77
2021/03/23 13:39:43;;;;;;;8.80;2.22;;;;;;;13.61;27.99;101113.41;5012517;28;20060;-77
2021/03/23 13:42:47;;;;;;;7.45;2.10;;;;;;;13.68;29.02;101119.13;5023225;28;20048;-77
2021/03/23 13:46:08;;;;;;;5.90;2.35;;;;;;;13.68;27.74;101109.19;5023188;28;20056;-77
2021/03/23 13:49:13;;;;;;;5.80;2.33;;;;;;;13.67;29.07;101118.28;5012160;28;20061;-77
2021/03/23 13:52:31;;;;;;;9.15;2.80;;;;;;;13.73;29.22;101122.25;5006561;28;20049;-81
2021/03/23 13:55:36;;;;;;;4.78;2.70;;;;;;;13.74;28.84;101110.50;5010821;28;20069;-80
2021/03/23 13:58:42;;;;;;;5.13;2.47;;;;;;;13.76;30.17;101121.13;5011139;28;20405;-82
2021/03/23 14:01:52;;;;;;;6.13;3.20;;;;;;;13.72;29.50;101108.91;5012611;28;20061;-80
2021/03/23 14:04:56;;;;;;;5.45;2.35;;;;;;;13.63;29.02;101110.56;5011541;28;20374;-79
2021/03/23 14:08:04;;;;;;;5.70;2.42;;;;;;;13.72;28.83;101107.09;5013187;28;20053;-78
2021/03/23 14:11:17;;;;;;;7.35;2.42;;;;;;;13.61;28.07;101108.03;5016138;28;20045;-76
2021/03/23 14:14:21;;;;;;;4.85;2.17;;;;;;;13.81;28.04;101108.09;5015953;28;20465;-76
2021/03/23 14:17:29;;;;;;;4.25;2.10;;;;;;;13.80;27.33;101098.31;5016478;28;20504;-78
2021/03/23 14:20:35;;;;;;;4.95;2.60;;;;;;;13.83;26.26;101098.00;5016291;28;20061;-81
2021/03/23 14:23:47;;;;;;;6.70;2.03;;;;;;;13.87;26.85;101094.91;5016035;28;20053;-78
2021/03/23 14:26:51;;;;;;;5.63;2.13;;;;;;;13.94;26.08;101093.38;5014329;28;20393;-79
2021/03/23 14:29:56;;;;;;;4.18;1.92;;;;;;;13.96;25.28;101090.53;5014981;28;20045;-80
2021/03/23 14:33:01;;;;;;;6.20;2.25;;;;;;;13.96;26.43;101087.81;5011932;28;20057;-78
2021/03/23 14:36:07;;;;;;;6.70;2.50;;;;;;;13.87;27.62;101076.03;5016224;28;20065;-77
2021/03/23 14:39:22;;;;;;;6.93;2.10;;;;;;;13.90;28.25;101075.72;5015462;28;20045;-78
2021/03/23 14:42:26;;;;;;;7.45;2.28;;;;;;;13.91;27.85;101073.88;5016350;28;20053;-79
2021/03/23 14:45:32;;;;;;;2.95;1.60;;;;;;;13.94;26.08;101081.72;5026205;28;20061;-81
2021/03/23 14:48:36;;;;;;;4.88;1.85;;;;;;;13.92;25.35;101072.91;5015643;28;20397;-79
2021/03/23 14:51:44;;;;;;;4.18;2.10;;;;;;;13.91;25.45;101076.59;5014180;28;20053;-76